createdAt,value
2023-05-10T00:01:06.765Z,0.45
2023-05-10T00:03:35.115Z,0.85
2023-05-10T00:06:03.650Z,0.85
2023-05-10T00:08:31.926Z,0.65
2023-05-10T00:11:00.476Z,0.82
2023-05-10T00:13:28.888Z,0.57
2023-05-10T00:15:58.652Z,0.43
2023-05-10T00:18:26.959Z,0.10
2023-05-10T00:20:55.283Z,0.25
2023-05-10T00:23:23.632Z,0.98
2023-05-10T00:25:51.934Z,0.75
2023-05-10T00:28:20.254Z,0.73
2023-05-10T00:30:48.544Z,0.68
2023-05-10T00:33:18.271Z,0.50
2023-05-10T00:35:46.507Z,0.60
2023-05-10T00:38:15.339Z,0.30
2023-05-10T00:40:43.861Z,0.20
2023-05-10T00:43:19.994Z,0.10
2023-05-10T00:45:49.453Z,0.38
2023-05-10T00:48:19.269Z,0.35
2023-05-10T00:50:47.988Z,0.68
2023-05-10T00:53:17.108Z,0.93
2023-05-10T00:55:46.632Z,1.30
2023-05-10T00:58:15.628Z,1.17
2023-05-10T01:00:44.820Z,0.20
2023-05-10T01:03:14.049Z,0.47
2023-05-10T01:05:44.540Z,0.77
2023-05-10T01:08:12.833Z,0.73
2023-05-10T01:10:41.348Z,0.50
2023-05-10T01:13:10.358Z,1.10
2023-05-10T01:15:39.485Z,1.38
2023-05-10T01:18:08.162Z,0.95
2023-05-10T01:20:47.077Z,0.28
2023-05-10T01:23:47.829Z,0.77
2023-05-10T01:26:38.280Z,1.00
2023-05-10T01:29:20.420Z,1.77
2023-05-10T01:32:18.118Z,0.80
2023-05-10T01:34:56.741Z,0.65
2023-05-10T01:37:35.876Z,0.63
2023-05-10T01:40:13.315Z,1.17
2023-05-10T01:42:48.910Z,1.05
2023-05-10T01:45:23.791Z,1.25
2023-05-10T01:48:04.139Z,0.43
2023-05-10T01:50:35.037Z,1.30
2023-05-10T01:53:04.707Z,1.08
2023-05-10T01:55:37.596Z,0.95
2023-05-10T01:58:09.537Z,1.00
2023-05-10T02:00:39.716Z,0.77
2023-05-10T02:03:12.646Z,1.08
2023-05-10T02:05:42.412Z,0.90
2023-05-10T02:08:11.442Z,0.80
2023-05-10T02:10:41.592Z,1.05
2023-05-10T02:13:12.573Z,0.82
2023-05-10T02:15:42.416Z,1.02
2023-05-10T02:18:13.992Z,0.85
2023-05-10T02:20:42.622Z,0.50
2023-05-10T02:23:11.996Z,0.40
2023-05-10T02:25:40.835Z,0.10
2023-05-10T02:28:10.590Z,0.25
2023-05-10T02:30:39.931Z,0.50
2023-05-10T02:33:08.626Z,0.57
2023-05-10T02:35:40.152Z,0.47
2023-05-10T02:38:12.780Z,0.22
2023-05-10T02:40:43.633Z,0.82
2023-05-10T02:43:15.459Z,0.70
2023-05-10T02:45:45.120Z,0.88
2023-05-10T02:48:13.511Z,0.70
2023-05-10T02:50:46.226Z,0.30
2023-05-10T02:53:18.506Z,0.70
2023-05-10T02:55:50.214Z,0.68
2023-05-10T02:58:20.347Z,0.93
2023-05-10T03:00:48.752Z,0.43
2023-05-10T03:03:17.014Z,0.77
2023-05-10T03:05:46.704Z,0.80
2023-05-10T03:08:15.139Z,0.82
2023-05-10T03:10:54.170Z,1.58
2023-05-10T03:13:31.292Z,0.63
2023-05-10T03:16:04.192Z,0.38
2023-05-10T03:18:44.214Z,0.47
2023-05-10T03:21:16.413Z,0.50
2023-05-10T03:23:49.968Z,1.02
2023-05-10T03:26:22.842Z,0.80
2023-05-10T03:28:53.064Z,0.73
2023-05-10T03:31:21.602Z,0.70
2023-05-10T03:33:50.365Z,1.73
2023-05-10T03:36:25.114Z,0.63
2023-05-10T03:38:53.645Z,0.77
2023-05-10T03:41:22.462Z,0.82
2023-05-10T03:43:50.727Z,1.20
2023-05-10T03:46:19.061Z,0.95
2023-05-10T03:48:47.440Z,0.82
2023-05-10T03:51:15.664Z,0.77
2023-05-10T03:53:46.010Z,0.52
2023-05-10T03:56:14.322Z,1.33
2023-05-10T03:58:42.660Z,0.73
2023-05-10T04:01:11.024Z,0.68
2023-05-10T04:03:39.438Z,0.80
2023-05-10T04:06:10.207Z,0.60
2023-05-10T04:08:38.748Z,1.02
2023-05-10T04:11:09.617Z,0.77
2023-05-10T04:13:38.289Z,1.33
2023-05-10T04:16:07.397Z,1.13
2023-05-10T04:18:35.791Z,0.70
2023-05-10T04:21:04.045Z,0.57
2023-05-10T04:23:32.322Z,0.63
2023-05-10T04:26:03.857Z,0.98
2023-05-10T04:28:33.920Z,0.57
2023-05-10T04:31:05.873Z,0.43
2023-05-10T04:33:34.940Z,0.82
2023-05-10T04:36:03.350Z,0.77
2023-05-10T04:38:31.812Z,0.68
2023-05-10T04:41:07.269Z,1.08
2023-05-10T04:43:37.254Z,1.25
2023-05-10T04:46:06.354Z,0.52
2023-05-10T04:48:34.872Z,0.65
2023-05-10T04:51:04.811Z,0.88
2023-05-10T04:53:33.104Z,0.40
2023-05-10T04:56:01.779Z,0.65
2023-05-10T04:58:30.166Z,0.73
2023-05-10T05:00:59.811Z,0.75
2023-05-10T05:03:28.098Z,0.75
2023-05-10T05:05:56.393Z,0.25
2023-05-10T05:08:25.069Z,0.68
2023-05-10T05:10:53.411Z,1.00
2023-05-10T05:13:21.855Z,0.57
2023-05-10T05:15:50.210Z,0.70
2023-05-10T05:18:19.877Z,0.47
2023-05-10T05:20:48.154Z,0.75
2023-05-10T05:23:16.375Z,0.73
2023-05-10T05:25:44.634Z,0.77
2023-05-10T05:28:12.899Z,0.25
2023-05-10T05:30:41.210Z,0.93
2023-05-10T05:33:09.492Z,0.57
2023-05-10T05:35:39.176Z,0.75
2023-05-10T05:38:07.560Z,1.05
2023-05-10T05:40:36.155Z,1.73
2023-05-10T05:43:04.417Z,1.83
2023-05-10T05:45:32.791Z,1.98
2023-05-10T05:48:01.125Z,0.65
2023-05-10T05:50:29.425Z,1.02
2023-05-10T05:52:59.093Z,1.23
2023-05-10T05:55:27.936Z,0.57
2023-05-10T05:57:56.215Z,0.93
2023-05-10T06:00:24.568Z,0.47
2023-05-10T06:02:52.926Z,1.48
2023-05-10T06:05:21.266Z,1.08
2023-05-10T06:07:49.625Z,0.65
2023-05-10T06:10:19.348Z,0.95
2023-05-10T06:12:47.660Z,1.00
2023-05-10T06:15:16.338Z,0.55
2023-05-10T06:17:45.407Z,2.85
2023-05-10T06:20:14.980Z,1.02
2023-05-10T06:22:43.457Z,0.30
2023-05-10T06:25:12.634Z,1.23
2023-05-10T06:27:42.320Z,1.38
2023-05-10T06:30:13.554Z,0.70
2023-05-10T06:32:42.105Z,0.60
2023-05-10T06:35:11.249Z,0.45
2023-05-10T06:37:39.638Z,0.30
2023-05-10T06:40:10.400Z,0.70
2023-05-10T06:42:39.026Z,0.38
2023-05-10T06:45:10.304Z,1.23
2023-05-10T06:47:39.437Z,0.73
2023-05-10T06:50:09.080Z,2.35
2023-05-10T06:52:37.688Z,0.25
2023-05-10T06:55:07.038Z,0.65
2023-05-10T06:57:35.337Z,0.88
2023-05-10T07:00:05.187Z,0.55
2023-05-10T07:02:35.037Z,0.40
2023-05-10T07:05:03.669Z,0.17
2023-05-10T07:07:32.336Z,0.32
2023-05-10T07:10:00.678Z,0.40
2023-05-10T07:12:28.969Z,0.13
2023-05-10T07:14:57.346Z,0.55
2023-05-10T07:17:25.761Z,0.80
2023-05-10T07:19:55.551Z,0.00
2023-05-10T07:22:23.852Z,0.00
2023-05-10T07:24:52.086Z,0.38
2023-05-10T07:27:20.488Z,0.20
2023-05-10T07:29:48.752Z,0.70
2023-05-10T07:32:17.103Z,0.00
2023-05-10T07:34:45.385Z,0.10
2023-05-10T07:37:15.055Z,0.20
2023-05-10T07:39:43.336Z,0.00
2023-05-10T07:42:11.669Z,0.05
2023-05-10T07:44:39.854Z,0.13
2023-05-10T07:47:08.145Z,0.10
2023-05-10T07:49:36.700Z,0.20
2023-05-10T07:52:05.700Z,0.10
2023-05-10T07:54:35.905Z,0.10
2023-05-10T07:57:04.185Z,0.00
2023-05-10T07:59:32.541Z,0.10
2023-05-10T08:02:01.791Z,0.00
2023-05-10T08:04:30.075Z,0.10
2023-05-10T08:06:58.473Z,0.08
2023-05-10T08:09:26.809Z,0.10
2023-05-10T08:12:00.467Z,0.00
2023-05-10T08:14:30.052Z,0.25
2023-05-10T08:16:58.495Z,0.17
2023-05-10T08:19:26.769Z,0.00
2023-05-10T08:25:02.473Z,0.00
2023-05-10T08:27:34.247Z,0.00
2023-05-10T08:30:09.269Z,0.30
2023-05-10T08:32:46.895Z,0.00
2023-05-10T08:35:28.873Z,0.00
2023-05-10T08:38:01.553Z,0.00
2023-05-10T08:40:44.886Z,0.00
2023-05-10T08:43:23.601Z,0.10
2023-05-10T08:46:08.126Z,0.20
2023-05-10T08:48:41.671Z,0.57
2023-05-10T08:51:30.997Z,0.00
2023-05-10T08:54:04.636Z,0.32
2023-05-10T08:56:50.898Z,0.25
2023-05-10T08:59:24.479Z,0.20
2023-05-10T09:01:55.287Z,0.13
2023-05-10T09:04:36.865Z,0.20
2023-05-10T09:07:15.542Z,0.10
2023-05-10T09:09:53.341Z,0.55
2023-05-10T09:12:30.167Z,0.10
2023-05-10T09:15:14.958Z,0.08
2023-05-10T09:18:05.235Z,0.10
2023-05-10T09:20:52.627Z,0.20
2023-05-10T09:23:48.631Z,0.10
2023-05-10T09:29:55.351Z,0.20
2023-05-10T09:32:54.890Z,0.00
2023-05-10T09:35:39.240Z,0.10
2023-05-10T09:38:21.615Z,0.30
2023-05-10T09:41:00.848Z,0.50
2023-05-10T09:43:42.871Z,0.57
2023-05-10T09:46:54.847Z,0.40
2023-05-10T09:49:29.369Z,0.45
2023-05-10T09:52:08.475Z,0.17
2023-05-10T09:54:56.598Z,0.47
2023-05-10T09:57:38.846Z,0.20
2023-05-10T10:00:36.100Z,0.35
2023-05-10T10:03:19.976Z,0.30
2023-05-10T10:06:01.417Z,0.77
2023-05-10T10:08:36.563Z,0.13
2023-05-10T10:11:12.038Z,0.20
2023-05-10T10:13:48.305Z,0.20
2023-05-10T10:16:34.233Z,0.45
2023-05-10T10:19:07.030Z,1.48
2023-05-10T10:21:48.732Z,0.52
2023-05-10T10:24:23.459Z,0.57
2023-05-10T10:27:18.875Z,0.43
2023-05-10T10:30:08.142Z,0.73
2023-05-10T10:32:58.059Z,0.40
2023-05-10T10:35:28.655Z,0.57
2023-05-10T10:38:04.767Z,0.40
2023-05-10T10:40:49.932Z,0.80
2023-05-10T10:43:40.944Z,0.65
2023-05-10T10:46:27.478Z,0.38
2023-05-10T10:49:18.990Z,0.88
2023-05-10T10:52:32.557Z,0.57
2023-05-10T10:55:14.896Z,0.50
2023-05-10T10:58:05.041Z,0.40
2023-05-10T11:00:44.949Z,0.45
2023-05-10T11:03:28.518Z,0.50
2023-05-10T11:06:05.765Z,0.88
2023-05-10T11:08:55.907Z,0.10
2023-05-10T11:11:30.705Z,0.17
2023-05-10T11:14:09.862Z,0.98
2023-05-10T11:16:49.975Z,0.73
2023-05-10T11:19:21.603Z,0.95
2023-05-10T11:21:51.367Z,0.85
2023-05-10T11:24:23.373Z,0.73
2023-05-10T11:26:53.638Z,0.60
2023-05-10T11:29:22.242Z,0.30
2023-05-10T11:31:51.540Z,0.52
2023-05-10T11:34:27.000Z,0.98
2023-05-10T11:36:56.052Z,0.45
2023-05-10T11:39:27.817Z,0.40
2023-05-10T11:41:57.812Z,0.75
2023-05-10T11:44:26.684Z,0.47
2023-05-10T11:46:55.090Z,0.52
2023-05-10T11:49:25.237Z,0.45
2023-05-10T11:51:53.576Z,0.30
2023-05-10T11:54:21.876Z,0.13
2023-05-10T11:56:52.137Z,0.60
2023-05-10T11:59:21.762Z,0.22
2023-05-10T12:01:50.766Z,0.10
2023-05-10T12:04:19.496Z,0.55
2023-05-10T12:06:48.556Z,0.22
2023-05-10T12:09:19.241Z,0.20
2023-05-10T12:11:51.560Z,0.30
2023-05-10T12:14:22.770Z,0.55
2023-05-10T12:16:52.235Z,0.10
2023-05-10T12:19:22.507Z,0.20
2023-05-10T12:21:53.040Z,0.22
2023-05-10T12:24:27.623Z,0.30
2023-05-10T12:26:55.936Z,0.08
2023-05-10T12:29:25.711Z,0.98
2023-05-10T12:31:58.865Z,0.60
2023-05-10T12:34:28.757Z,0.52
2023-05-10T12:36:58.096Z,0.43
2023-05-10T12:39:26.996Z,0.17
2023-05-10T12:41:58.412Z,0.55
2023-05-10T12:44:28.496Z,0.40
2023-05-10T12:46:57.089Z,0.10
2023-05-10T12:49:25.441Z,0.38
2023-05-10T12:51:53.784Z,0.38
2023-05-10T12:54:22.007Z,0.20
2023-05-10T12:56:50.141Z,1.20
2023-05-10T12:59:19.325Z,0.20
2023-05-10T13:01:48.889Z,0.20
2023-05-10T13:04:17.105Z,0.57
2023-05-10T13:06:45.464Z,0.40
2023-05-10T13:09:13.652Z,0.40
2023-05-10T13:11:42.019Z,0.47
2023-05-10T13:14:10.235Z,0.13
2023-05-10T13:16:38.469Z,0.50
2023-05-10T13:19:08.334Z,0.20
2023-05-10T13:21:36.963Z,0.10
2023-05-10T13:24:05.503Z,0.45
2023-05-10T13:26:37.292Z,0.57
2023-05-10T13:29:06.081Z,0.38
2023-05-10T13:31:34.477Z,0.55
2023-05-10T13:34:07.667Z,0.28
2023-05-10T13:36:36.041Z,0.60
2023-05-10T13:39:06.493Z,0.20
2023-05-10T13:41:43.481Z,0.22
2023-05-10T13:44:20.947Z,0.25
2023-05-10T13:46:53.172Z,0.55
2023-05-10T13:49:23.313Z,0.20
2023-05-10T13:51:52.065Z,0.50
2023-05-10T13:54:21.068Z,0.52
2023-05-10T13:56:49.864Z,0.10
2023-05-10T13:59:18.639Z,0.75
2023-05-10T14:01:47.144Z,0.15
2023-05-10T14:04:16.548Z,0.20
2023-05-10T14:06:46.498Z,0.60
2023-05-10T14:09:14.939Z,0.45
2023-05-10T14:11:44.265Z,1.15
2023-05-10T14:14:12.563Z,0.30
2023-05-10T14:16:40.830Z,0.17
2023-05-10T14:19:09.415Z,0.75
2023-05-10T14:21:37.590Z,0.17
2023-05-10T14:24:08.192Z,0.32
2023-05-10T14:26:36.473Z,0.80
2023-05-10T14:29:04.660Z,0.00
2023-05-10T14:31:32.834Z,0.73
2023-05-10T14:41:48.118Z,0.52
2023-05-10T14:44:16.503Z,0.32
2023-05-10T14:46:44.876Z,0.28
2023-05-10T14:49:12.971Z,0.40
2023-05-10T14:51:41.196Z,0.25
2023-05-10T14:54:09.387Z,0.22
2023-05-10T14:56:38.359Z,0.28
2023-05-10T14:59:08.196Z,0.40
2023-05-10T15:01:38.470Z,0.50
2023-05-10T15:04:06.921Z,0.60
2023-05-10T15:06:36.516Z,0.80
2023-05-10T15:09:05.536Z,0.30
2023-05-10T15:11:33.619Z,0.30
2023-05-10T15:14:01.799Z,0.47
2023-05-10T15:16:32.281Z,0.60
2023-05-10T15:19:02.578Z,0.40
2023-05-10T15:21:36.057Z,1.15
2023-05-10T15:24:04.321Z,0.30
2023-05-10T15:26:32.454Z,0.17
2023-05-10T15:29:00.571Z,0.73
2023-05-10T15:31:29.202Z,0.75
2023-05-10T15:34:00.699Z,0.77
2023-05-10T15:36:28.991Z,0.32
2023-05-10T15:39:01.562Z,0.65
2023-05-10T15:41:31.105Z,0.65
2023-05-10T15:44:00.670Z,0.28
2023-05-10T15:46:29.040Z,0.55
2023-05-10T15:48:57.215Z,0.98
2023-05-10T15:51:26.788Z,0.60
2023-05-10T15:54:06.638Z,0.10
2023-05-10T15:56:35.495Z,0.10
2023-05-10T15:59:03.846Z,0.43
2023-05-10T16:01:32.935Z,0.88
2023-05-10T16:04:01.390Z,0.10
2023-05-10T16:06:31.370Z,0.43
2023-05-10T16:08:59.516Z,0.50
2023-05-10T16:11:30.724Z,0.30
2023-05-10T16:13:59.240Z,0.32
2023-05-10T16:16:30.495Z,0.85
2023-05-10T16:19:01.290Z,0.55
2023-05-10T16:21:31.855Z,0.47
2023-05-10T16:24:00.836Z,0.60
2023-05-10T16:26:29.236Z,1.25
2023-05-10T16:29:00.540Z,5.22
2023-05-10T16:31:29.797Z,5.93
2023-05-10T16:33:58.077Z,6.13
2023-05-10T16:36:27.539Z,6.22
2023-05-10T16:38:57.253Z,6.18
2023-05-10T16:41:28.112Z,6.10
2023-05-10T16:43:57.658Z,5.13
2023-05-10T16:46:26.510Z,4.45
2023-05-10T16:48:54.762Z,4.45
2023-05-10T16:51:25.114Z,4.97
2023-05-10T16:53:53.517Z,5.35
2023-05-10T16:56:24.106Z,5.35
2023-05-10T16:58:52.479Z,5.03
2023-05-10T17:01:29.257Z,5.00
2023-05-10T17:03:58.191Z,5.63
2023-05-10T17:06:26.618Z,6.38
2023-05-10T17:08:54.853Z,6.10
2023-05-10T17:11:24.678Z,6.45
2023-05-10T17:13:53.314Z,6.65
2023-05-10T17:16:23.597Z,6.57
2023-05-10T17:23:20.021Z,6.78
2023-05-10T17:25:48.481Z,7.55
2023-05-10T17:28:18.103Z,7.20
2023-05-10T17:30:46.288Z,7.35
2023-05-10T17:33:14.510Z,7.78
2023-05-10T17:35:46.443Z,7.95
2023-05-10T17:38:14.576Z,7.65
2023-05-10T17:40:42.652Z,8.35
2023-05-10T17:43:10.982Z,8.30
2023-05-10T17:45:40.549Z,8.38
2023-05-10T17:48:09.370Z,7.82
2023-05-10T17:50:37.463Z,8.07
2023-05-10T17:53:05.531Z,7.90
2023-05-10T17:55:33.740Z,8.48
2023-05-10T17:58:01.899Z,9.55
2023-05-10T18:00:30.349Z,8.25
2023-05-10T18:03:00.355Z,8.55
2023-05-10T18:05:28.622Z,10.05
2023-05-10T18:07:58.751Z,10.10
2023-05-10T18:10:26.816Z,9.02
2023-05-10T18:12:54.925Z,9.55
2023-05-10T18:15:23.069Z,10.63
2023-05-10T18:17:51.512Z,10.73
2023-05-10T18:20:21.211Z,12.30
2023-05-10T18:22:49.295Z,11.57
2023-05-10T18:25:17.950Z,12.20
2023-05-10T18:27:46.113Z,12.20
2023-05-10T18:30:15.467Z,12.23
2023-05-10T18:32:43.615Z,12.13
2023-05-10T18:35:12.357Z,12.10
2023-05-10T18:37:41.953Z,12.02
2023-05-10T18:40:12.596Z,12.05
2023-05-10T18:42:40.894Z,11.77
2023-05-10T18:45:10.156Z,12.25
2023-05-10T18:47:38.366Z,11.75
2023-05-10T18:50:07.685Z,13.10
2023-05-10T18:52:36.827Z,12.02
2023-05-10T18:55:07.470Z,11.65
2023-05-10T18:57:41.105Z,12.27
2023-05-10T19:00:11.243Z,12.00
2023-05-10T19:02:39.784Z,11.80
2023-05-10T19:05:09.538Z,11.15
2023-05-10T19:07:37.701Z,11.10
2023-05-10T19:10:08.340Z,10.77
2023-05-10T19:12:37.450Z,11.70
2023-05-10T19:15:06.321Z,11.00
2023-05-10T19:17:36.922Z,10.80
2023-05-10T19:20:06.879Z,10.70
2023-05-10T19:22:45.362Z,10.60
2023-05-10T19:25:29.185Z,9.48
2023-05-10T19:27:57.953Z,9.77
2023-05-10T19:30:26.478Z,9.57
2023-05-10T19:32:54.590Z,9.93
2023-05-10T19:35:22.735Z,10.38
2023-05-10T19:37:50.887Z,9.73
2023-05-10T19:40:19.665Z,9.90
2023-05-10T19:42:49.252Z,10.18
2023-05-10T19:45:17.624Z,9.18
2023-05-10T19:47:45.971Z,10.27
2023-05-10T19:50:16.380Z,9.77
2023-05-10T19:52:44.970Z,9.95
2023-05-10T19:55:29.565Z,8.32
2023-05-10T19:58:00.618Z,8.75
2023-05-10T20:00:29.256Z,8.60
2023-05-10T20:02:57.835Z,8.00
2023-05-10T20:06:16.114Z,8.27
2023-05-10T20:08:58.239Z,7.60
2023-05-10T20:11:38.231Z,7.60
2023-05-10T20:14:07.971Z,7.97
2023-05-10T20:16:36.503Z,7.13
2023-05-10T20:19:04.748Z,7.00
2023-05-10T20:21:55.977Z,7.00
2023-05-10T20:24:24.068Z,6.50
2023-05-10T20:26:52.083Z,5.93
2023-05-10T20:29:21.583Z,6.10
2023-05-10T20:31:49.601Z,6.30
2023-05-10T20:34:17.907Z,6.50
2023-05-10T20:36:46.198Z,6.70
2023-05-10T20:39:14.936Z,6.20
2023-05-10T20:41:43.793Z,6.25
2023-05-10T20:44:11.854Z,6.55
2023-05-10T20:46:41.406Z,6.40
2023-05-10T20:49:09.702Z,6.82
2023-05-10T20:51:37.742Z,6.90
2023-05-10T20:54:05.988Z,7.13
2023-05-10T20:56:35.009Z,7.15
2023-05-10T20:59:03.148Z,6.88
2023-05-10T21:01:31.757Z,6.95
2023-05-10T21:04:01.202Z,7.72
2023-05-10T21:06:29.202Z,7.68
2023-05-10T21:08:57.235Z,8.00
2023-05-10T21:11:25.764Z,7.30
2023-05-10T21:13:53.828Z,7.97
2023-05-10T21:16:21.958Z,8.32
2023-05-10T21:18:50.121Z,8.30
2023-05-10T21:21:19.654Z,7.90
2023-05-10T21:23:47.752Z,8.77
2023-05-10T21:26:15.913Z,7.97
2023-05-10T21:28:44.059Z,8.63
2023-05-10T21:31:12.233Z,8.35
2023-05-10T21:33:40.389Z,8.90
2023-05-10T21:36:09.534Z,9.43
2023-05-10T21:38:39.520Z,9.73
2023-05-10T21:41:08.321Z,9.88
2023-05-10T21:43:36.376Z,9.45
2023-05-10T21:46:04.591Z,10.50
2023-05-10T21:48:32.770Z,10.52
2023-05-10T21:51:01.625Z,10.82
2023-05-10T21:53:29.747Z,10.30
2023-05-10T21:55:59.212Z,12.18
2023-05-10T21:58:27.678Z,11.88
2023-05-10T22:00:56.199Z,11.43
2023-05-10T22:03:24.414Z,10.93
2023-05-10T22:05:52.614Z,12.02
2023-05-10T22:08:20.745Z,12.00
2023-05-10T22:10:48.744Z,12.60
2023-05-10T22:13:18.195Z,12.82
2023-05-10T22:15:46.294Z,12.60
2023-05-10T22:18:14.348Z,12.68
2023-05-10T22:20:43.461Z,14.00
2023-05-10T22:23:11.663Z,13.60
2023-05-10T22:25:39.744Z,13.93
2023-05-10T22:28:08.628Z,12.60
2023-05-10T22:30:38.775Z,13.63
2023-05-10T22:33:07.388Z,13.45
2023-05-10T22:35:35.597Z,13.88
2023-05-10T22:38:04.199Z,14.55
2023-05-10T22:40:32.761Z,13.70
2023-05-10T22:43:00.823Z,13.98
2023-05-10T22:45:28.967Z,13.02
2023-05-10T22:47:58.643Z,13.73
2023-05-10T22:50:26.881Z,13.80
2023-05-10T22:52:54.916Z,13.93
2023-05-10T22:55:23.146Z,14.27
2023-05-10T22:57:51.782Z,15.02
2023-05-10T23:00:20.431Z,13.65
2023-05-10T23:02:48.701Z,14.02
2023-05-10T23:05:18.656Z,14.05
2023-05-10T23:07:48.436Z,13.38
2023-05-10T23:10:16.676Z,14.52
2023-05-10T23:12:44.812Z,13.88
2023-05-10T23:15:13.049Z,14.10
2023-05-10T23:17:41.197Z,14.40
2023-05-10T23:20:10.260Z,13.13
2023-05-10T23:22:40.146Z,13.10
2023-05-10T23:25:09.440Z,13.98
2023-05-10T23:27:37.429Z,13.30
2023-05-10T23:30:06.113Z,13.10
2023-05-10T23:32:34.221Z,13.65
2023-05-10T23:35:02.379Z,14.30
2023-05-10T23:37:30.393Z,14.38
2023-05-10T23:40:00.267Z,13.43
2023-05-10T23:42:28.321Z,15.45
2023-05-10T23:44:56.499Z,13.85
2023-05-10T23:47:24.657Z,14.73
2023-05-10T23:49:52.765Z,14.23
2023-05-10T23:52:22.827Z,14.45
2023-05-10T23:54:51.013Z,15.02
2023-05-10T23:57:20.847Z,13.90
2023-05-10T23:59:49.130Z,14.40
